Terminal Aerodrome Forecast
Issued by NWS

Home | Current Version | Previous Version | Text Only | Print | Product List | Glossary On
Versions: 1 2 3 4 5 6 7 8 9 10 11 12 13 14 15 16 17 18
000
FTUS41 KOKX 210800 AAA
TAFHPN
TAF AMD
KHPN 210830Z 2109/2206 VRB02KT P6SM VCSH BKN040 BKN100
      TEMPO 2109/2111 -SHRA
     FM211400 13004KT P6SM BKN040 BKN100
     FM220100 VRB02KT P6SM SCT020 BKN040 PROB30 2204/2206 5SM -SHRA
      BKN020
      AMD NOT SKED=

USA.gov is the U.S. government's official web portal to all federal, state and local government web resources and services.